sensor_id;sensor_type;location;lat;lon;timestamp;temperature;humidity
17202;DHT22;8717;53.588;10.176;2023-04-24T00:01:00;10.90;99.90
17202;DHT22;8717;53.588;10.176;2023-04-24T00:03:27;10.90;99.90
17202;DHT22;8717;53.588;10.176;2023-04-24T00:05:55;10.90;99.90
17202;DHT22;8717;53.588;10.176;2023-04-24T00:08:22;10.80;99.90
17202;DHT22;8717;53.588;10.176;2023-04-24T00:10:50;10.80;99.90
17202;DHT22;8717;53.588;10.176;2023-04-24T00:13:18;10.70;99.90
17202;DHT22;8717;53.588;10.176;2023-04-24T00:15:45;10.70;99.90
17202;DHT22;8717;53.588;10.176;2023-04-24T00:18:12;10.70;99.90
17202;DHT22;8717;53.588;10.176;2023-04-24T00:20:38;10.70;99.90
17202;DHT22;8717;53.588;10.176;2023-04-24T00:23:05;10.70;99.90
17202;DHT22;8717;53.588;10.176;2023-04-24T00:25:32;10.70;99.90
17202;DHT22;8717;53.588;10.176;2023-04-24T00:28:00;10.60;99.90
17202;DHT22;8717;53.588;10.176;2023-04-24T00:30:27;10.60;99.90
17202;DHT22;8717;53.588;10.176;2023-04-24T00:32:53;10.60;99.90
17202;DHT22;8717;53.588;10.176;2023-04-24T00:35:21;10.60;99.90
17202;DHT22;8717;53.588;10.176;2023-04-24T00:37:48;10.60;99.90
17202;DHT22;8717;53.588;10.176;2023-04-24T00:40:15;10.60;99.90
17202;DHT22;8717;53.588;10.176;2023-04-24T00:42:43;10.50;99.90
17202;DHT22;8717;53.588;10.176;2023-04-24T00:45:12;10.50;99.90
17202;DHT22;8717;53.588;10.176;2023-04-24T00:47:39;10.50;99.90
17202;DHT22;8717;53.588;10.176;2023-04-24T00:50:07;10.50;99.90
17202;DHT22;8717;53.588;10.176;2023-04-24T00:52:34;10.50;99.90
17202;DHT22;8717;53.588;10.176;2023-04-24T00:55:01;10.50;99.90
17202;DHT22;8717;53.588;10.176;2023-04-24T00:57:28;10.50;99.90
17202;DHT22;8717;53.588;10.176;2023-04-24T00:59:55;10.40;99.90
17202;DHT22;8717;53.588;10.176;2023-04-24T01:02:24;10.40;99.90
17202;DHT22;8717;53.588;10.176;2023-04-24T01:04:51;10.40;99.90
17202;DHT22;8717;53.588;10.176;2023-04-24T01:07:19;10.40;99.90
17202;DHT22;8717;53.588;10.176;2023-04-24T01:09:48;10.40;99.90
17202;DHT22;8717;53.588;10.176;2023-04-24T01:12:18;10.50;99.90
17202;DHT22;8717;53.588;10.176;2023-04-24T01:14:45;10.40;99.90
17202;DHT22;8717;53.588;10.176;2023-04-24T01:17:11;10.40;99.90
17202;DHT22;8717;53.588;10.176;2023-04-24T01:19:39;10.50;99.90
17202;DHT22;8717;53.588;10.176;2023-04-24T01:22:13;10.50;99.90
17202;DHT22;8717;53.588;10.176;2023-04-24T01:24:40;10.50;99.90
17202;DHT22;8717;53.588;10.176;2023-04-24T01:27:08;10.50;99.90
17202;DHT22;8717;53.588;10.176;2023-04-24T01:29:35;10.50;99.90
17202;DHT22;8717;53.588;10.176;2023-04-24T01:32:03;10.50;99.90
17202;DHT22;8717;53.588;10.176;2023-04-24T01:34:30;10.50;99.90
17202;DHT22;8717;53.588;10.176;2023-04-24T01:36:58;10.50;99.90
17202;DHT22;8717;53.588;10.176;2023-04-24T01:39:26;10.50;99.90
17202;DHT22;8717;53.588;10.176;2023-04-24T01:41:54;10.50;99.90
17202;DHT22;8717;53.588;10.176;2023-04-24T01:44:21;10.50;99.90
17202;DHT22;8717;53.588;10.176;2023-04-24T01:46:48;10.40;99.90
17202;DHT22;8717;53.588;10.176;2023-04-24T01:49:15;10.40;99.90
17202;DHT22;8717;53.588;10.176;2023-04-24T01:51:41;10.40;99.90
17202;DHT22;8717;53.588;10.176;2023-04-24T01:54:08;10.40;99.90
17202;DHT22;8717;53.588;10.176;2023-04-24T01:56:40;10.40;99.90
17202;DHT22;8717;53.588;10.176;2023-04-24T01:59:09;10.40;99.90
17202;DHT22;8717;53.588;10.176;2023-04-24T02:01:36;10.40;99.90
17202;DHT22;8717;53.588;10.176;2023-04-24T02:04:03;10.40;99.90
17202;DHT22;8717;53.588;10.176;2023-04-24T02:06:31;10.40;99.90
17202;DHT22;8717;53.588;10.176;2023-04-24T02:09:00;10.30;99.90
17202;DHT22;8717;53.588;10.176;2023-04-24T02:11:27;10.30;99.90
17202;DHT22;8717;53.588;10.176;2023-04-24T02:13:55;10.20;99.90
17202;DHT22;8717;53.588;10.176;2023-04-24T02:16:22;10.20;99.90
17202;DHT22;8717;53.588;10.176;2023-04-24T02:18:49;10.20;99.90
17202;DHT22;8717;53.588;10.176;2023-04-24T02:21:16;10.10;99.90
17202;DHT22;8717;53.588;10.176;2023-04-24T02:23:43;10.10;99.90
17202;DHT22;8717;53.588;10.176;2023-04-24T02:26:12;10.10;99.90
17202;DHT22;8717;53.588;10.176;2023-04-24T02:28:39;10.00;99.90
17202;DHT22;8717;53.588;10.176;2023-04-24T02:31:07;10.00;99.90
17202;DHT22;8717;53.588;10.176;2023-04-24T02:33:34;9.90;99.90
17202;DHT22;8717;53.588;10.176;2023-04-24T02:36:01;9.90;99.90
17202;DHT22;8717;53.588;10.176;2023-04-24T02:38:28;9.80;99.90
17202;DHT22;8717;53.588;10.176;2023-04-24T02:40:55;9.70;99.90
17202;DHT22;8717;53.588;10.176;2023-04-24T02:43:21;9.80;99.90
17202;DHT22;8717;53.588;10.176;2023-04-24T02:45:48;9.70;99.90
17202;DHT22;8717;53.588;10.176;2023-04-24T02:48:16;9.70;99.90
17202;DHT22;8717;53.588;10.176;2023-04-24T02:50:44;9.60;99.90
17202;DHT22;8717;53.588;10.176;2023-04-24T02:53:10;9.60;99.90
17202;DHT22;8717;53.588;10.176;2023-04-24T02:55:37;9.50;99.90
17202;DHT22;8717;53.588;10.176;2023-04-24T02:58:04;9.60;99.90
17202;DHT22;8717;53.588;10.176;2023-04-24T03:00:31;9.50;99.90
17202;DHT22;8717;53.588;10.176;2023-04-24T03:02:58;9.50;99.90
17202;DHT22;8717;53.588;10.176;2023-04-24T03:05:27;9.40;99.90
17202;DHT22;8717;53.588;10.176;2023-04-24T03:07:53;9.40;99.90
17202;DHT22;8717;53.588;10.176;2023-04-24T03:10:20;9.40;99.90
17202;DHT22;8717;53.588;10.176;2023-04-24T03:12:48;9.40;99.90
17202;DHT22;8717;53.588;10.176;2023-04-24T03:15:17;9.30;99.90
17202;DHT22;8717;53.588;10.176;2023-04-24T03:17:44;9.30;99.90
17202;DHT22;8717;53.588;10.176;2023-04-24T03:20:11;9.20;99.90
17202;DHT22;8717;53.588;10.176;2023-04-24T03:22:40;9.20;99.90
17202;DHT22;8717;53.588;10.176;2023-04-24T03:25:08;9.20;99.90
17202;DHT22;8717;53.588;10.176;2023-04-24T03:27:35;9.20;99.90
17202;DHT22;8717;53.588;10.176;2023-04-24T03:30:21;9.20;99.90
17202;DHT22;8717;53.588;10.176;2023-04-24T03:32:54;9.20;99.90
17202;DHT22;8717;53.588;10.176;2023-04-24T03:35:25;9.20;99.90
17202;DHT22;8717;53.588;10.176;2023-04-24T03:37:54;9.10;99.90
17202;DHT22;8717;53.588;10.176;2023-04-24T03:40:47;9.10;99.90
17202;DHT22;8717;53.588;10.176;2023-04-24T03:43:27;9.10;99.90
17202;DHT22;8717;53.588;10.176;2023-04-24T03:45:57;9.00;99.90
17202;DHT22;8717;53.588;10.176;2023-04-24T03:48:24;9.00;99.90
17202;DHT22;8717;53.588;10.176;2023-04-24T03:50:52;9.00;99.90
17202;DHT22;8717;53.588;10.176;2023-04-24T03:53:21;9.00;99.90
17202;DHT22;8717;53.588;10.176;2023-04-24T03:55:48;9.00;99.90
17202;DHT22;8717;53.588;10.176;2023-04-24T03:58:15;9.00;99.90
17202;DHT22;8717;53.588;10.176;2023-04-24T04:00:43;9.00;99.90
17202;DHT22;8717;53.588;10.176;2023-04-24T04:03:32;9.00;99.90
17202;DHT22;8717;53.588;10.176;2023-04-24T04:05:59;8.90;99.90
17202;DHT22;8717;53.588;10.176;2023-04-24T04:08:28;8.90;99.90
17202;DHT22;8717;53.588;10.176;2023-04-24T04:10:54;8.90;99.90
17202;DHT22;8717;53.588;10.176;2023-04-24T04:13:22;9.00;99.90
17202;DHT22;8717;53.588;10.176;2023-04-24T04:15:49;8.90;99.90
17202;DHT22;8717;53.588;10.176;2023-04-24T04:18:16;8.90;99.90
17202;DHT22;8717;53.588;10.176;2023-04-24T04:20:43;8.90;99.90
17202;DHT22;8717;53.588;10.176;2023-04-24T04:23:12;8.80;99.90
17202;DHT22;8717;53.588;10.176;2023-04-24T04:26:04;8.80;99.90
17202;DHT22;8717;53.588;10.176;2023-04-24T04:28:46;8.80;99.90
17202;DHT22;8717;53.588;10.176;2023-04-24T04:31:13;8.70;99.90
17202;DHT22;8717;53.588;10.176;2023-04-24T04:33:40;8.70;99.90
17202;DHT22;8717;53.588;10.176;2023-04-24T04:36:08;8.70;99.90
17202;DHT22;8717;53.588;10.176;2023-04-24T04:38:38;8.70;99.90
17202;DHT22;8717;53.588;10.176;2023-04-24T04:41:15;8.70;99.90
17202;DHT22;8717;53.588;10.176;2023-04-24T04:43:45;8.70;99.90
17202;DHT22;8717;53.588;10.176;2023-04-24T04:46:13;8.70;99.90
17202;DHT22;8717;53.588;10.176;2023-04-24T04:48:55;8.70;99.90
17202;DHT22;8717;53.588;10.176;2023-04-24T04:51:23;8.80;99.90
17202;DHT22;8717;53.588;10.176;2023-04-24T04:53:50;8.80;99.90
17202;DHT22;8717;53.588;10.176;2023-04-24T04:56:18;8.80;99.90
17202;DHT22;8717;53.588;10.176;2023-04-24T04:58:45;8.80;99.90
17202;DHT22;8717;53.588;10.176;2023-04-24T05:01:15;8.80;99.90
17202;DHT22;8717;53.588;10.176;2023-04-24T05:03:45;8.90;99.90
17202;DHT22;8717;53.588;10.176;2023-04-24T05:06:14;8.90;99.90
17202;DHT22;8717;53.588;10.176;2023-04-24T05:08:42;9.00;99.90
17202;DHT22;8717;53.588;10.176;2023-04-24T05:11:17;9.00;99.90
17202;DHT22;8717;53.588;10.176;2023-04-24T05:13:44;9.00;99.90
17202;DHT22;8717;53.588;10.176;2023-04-24T05:16:16;9.10;99.90
17202;DHT22;8717;53.588;10.176;2023-04-24T05:18:43;9.10;99.90
17202;DHT22;8717;53.588;10.176;2023-04-24T05:21:13;9.20;99.90
17202;DHT22;8717;53.588;10.176;2023-04-24T05:23:43;9.20;99.90
17202;DHT22;8717;53.588;10.176;2023-04-24T05:26:13;9.20;99.90
17202;DHT22;8717;53.588;10.176;2023-04-24T05:28:42;9.20;99.90
17202;DHT22;8717;53.588;10.176;2023-04-24T05:31:11;9.30;99.90
17202;DHT22;8717;53.588;10.176;2023-04-24T05:33:39;9.30;99.90
17202;DHT22;8717;53.588;10.176;2023-04-24T05:36:06;9.40;99.90
17202;DHT22;8717;53.588;10.176;2023-04-24T05:38:33;9.40;99.90
17202;DHT22;8717;53.588;10.176;2023-04-24T05:41:00;9.50;99.90
17202;DHT22;8717;53.588;10.176;2023-04-24T05:43:27;9.50;99.90
17202;DHT22;8717;53.588;10.176;2023-04-24T05:45:55;9.50;99.90
17202;DHT22;8717;53.588;10.176;2023-04-24T05:48:22;9.50;99.90
17202;DHT22;8717;53.588;10.176;2023-04-24T05:50:49;9.60;99.90
17202;DHT22;8717;53.588;10.176;2023-04-24T05:53:16;9.60;99.90
17202;DHT22;8717;53.588;10.176;2023-04-24T05:55:43;9.60;99.90
17202;DHT22;8717;53.588;10.176;2023-04-24T05:58:10;9.70;99.90
17202;DHT22;8717;53.588;10.176;2023-04-24T06:00:38;9.80;99.90
17202;DHT22;8717;53.588;10.176;2023-04-24T06:03:09;9.80;99.90
17202;DHT22;8717;53.588;10.176;2023-04-24T06:05:35;9.90;99.90
17202;DHT22;8717;53.588;10.176;2023-04-24T06:08:02;9.90;99.90
17202;DHT22;8717;53.588;10.176;2023-04-24T06:10:33;9.90;99.90
17202;DHT22;8717;53.588;10.176;2023-04-24T06:13:00;10.00;99.90
17202;DHT22;8717;53.588;10.176;2023-04-24T06:15:29;10.10;99.90
17202;DHT22;8717;53.588;10.176;2023-04-24T06:18:00;10.20;99.90
17202;DHT22;8717;53.588;10.176;2023-04-24T06:20:28;10.30;99.90
17202;DHT22;8717;53.588;10.176;2023-04-24T06:22:55;10.40;99.90
17202;DHT22;8717;53.588;10.176;2023-04-24T06:25:21;10.60;99.90
17202;DHT22;8717;53.588;10.176;2023-04-24T06:27:50;10.70;99.90
17202;DHT22;8717;53.588;10.176;2023-04-24T06:30:16;10.80;99.90
17202;DHT22;8717;53.588;10.176;2023-04-24T06:32:43;11.00;99.90
17202;DHT22;8717;53.588;10.176;2023-04-24T06:35:10;11.10;99.90
17202;DHT22;8717;53.588;10.176;2023-04-24T06:37:39;11.20;99.90
17202;DHT22;8717;53.588;10.176;2023-04-24T06:40:06;11.30;99.90
17202;DHT22;8717;53.588;10.176;2023-04-24T06:42:33;11.50;99.90
17202;DHT22;8717;53.588;10.176;2023-04-24T06:45:02;11.60;99.90
17202;DHT22;8717;53.588;10.176;2023-04-24T06:47:29;11.70;99.90
17202;DHT22;8717;53.588;10.176;2023-04-24T06:49:56;11.70;99.90
17202;DHT22;8717;53.588;10.176;2023-04-24T06:52:23;11.90;99.90
17202;DHT22;8717;53.588;10.176;2023-04-24T06:54:51;11.90;99.90
17202;DHT22;8717;53.588;10.176;2023-04-24T06:57:18;11.80;99.90
17202;DHT22;8717;53.588;10.176;2023-04-24T06:59:45;11.80;99.90
17202;DHT22;8717;53.588;10.176;2023-04-24T07:02:11;11.80;99.90
17202;DHT22;8717;53.588;10.176;2023-04-24T07:04:38;11.80;99.90
17202;DHT22;8717;53.588;10.176;2023-04-24T07:07:05;11.70;99.90
17202;DHT22;8717;53.588;10.176;2023-04-24T07:09:32;11.60;99.90
17202;DHT22;8717;53.588;10.176;2023-04-24T07:12:02;11.60;99.90
17202;DHT22;8717;53.588;10.176;2023-04-24T07:14:28;11.60;99.90
17202;DHT22;8717;53.588;10.176;2023-04-24T07:16:55;11.60;99.90
17202;DHT22;8717;53.588;10.176;2023-04-24T07:19:23;11.70;99.90
17202;DHT22;8717;53.588;10.176;2023-04-24T07:21:49;11.70;99.90
17202;DHT22;8717;53.588;10.176;2023-04-24T07:24:16;11.80;99.90
17202;DHT22;8717;53.588;10.176;2023-04-24T07:26:43;11.90;99.90
17202;DHT22;8717;53.588;10.176;2023-04-24T07:29:13;12.10;99.90
17202;DHT22;8717;53.588;10.176;2023-04-24T07:31:40;12.40;99.90
17202;DHT22;8717;53.588;10.176;2023-04-24T07:34:07;12.60;99.90
17202;DHT22;8717;53.588;10.176;2023-04-24T07:36:33;12.90;99.90
17202;DHT22;8717;53.588;10.176;2023-04-24T07:39:00;13.20;99.90
17202;DHT22;8717;53.588;10.176;2023-04-24T07:41:27;13.50;99.90
17202;DHT22;8717;53.588;10.176;2023-04-24T07:43:54;13.90;99.90
17202;DHT22;8717;53.588;10.176;2023-04-24T07:46:22;14.20;99.90
17202;DHT22;8717;53.588;10.176;2023-04-24T07:48:50;14.40;99.90
17202;DHT22;8717;53.588;10.176;2023-04-24T07:51:17;14.60;99.90
17202;DHT22;8717;53.588;10.176;2023-04-24T07:53:43;14.70;99.80
17202;DHT22;8717;53.588;10.176;2023-04-24T07:56:10;14.70;99.90
17202;DHT22;8717;53.588;10.176;2023-04-24T07:58:37;14.80;99.90
17202;DHT22;8717;53.588;10.176;2023-04-24T08:01:04;15.00;99.90
17202;DHT22;8717;53.588;10.176;2023-04-24T08:03:32;15.30;99.90
17202;DHT22;8717;53.588;10.176;2023-04-24T08:05:58;15.50;98.60
17202;DHT22;8717;53.588;10.176;2023-04-24T08:08:25;15.80;98.60
17202;DHT22;8717;53.588;10.176;2023-04-24T08:10:52;16.10;98.10
17202;DHT22;8717;53.588;10.176;2023-04-24T08:13:19;16.20;96.80
17202;DHT22;8717;53.588;10.176;2023-04-24T08:15:45;16.10;97.00
17202;DHT22;8717;53.588;10.176;2023-04-24T08:18:12;16.10;97.00
17202;DHT22;8717;53.588;10.176;2023-04-24T08:20:42;15.90;96.60
17202;DHT22;8717;53.588;10.176;2023-04-24T08:23:09;15.70;96.90
17202;DHT22;8717;53.588;10.176;2023-04-24T08:25:35;15.60;96.60
17202;DHT22;8717;53.588;10.176;2023-04-24T08:28:03;15.50;97.50
17202;DHT22;8717;53.588;10.176;2023-04-24T08:30:30;15.50;97.40
17202;DHT22;8717;53.588;10.176;2023-04-24T08:32:57;15.40;97.50
17202;DHT22;8717;53.588;10.176;2023-04-24T08:35:23;15.40;97.40
17202;DHT22;8717;53.588;10.176;2023-04-24T08:37:52;15.30;97.80
17202;DHT22;8717;53.588;10.176;2023-04-24T08:40:23;15.30;97.60
17202;DHT22;8717;53.588;10.176;2023-04-24T08:42:54;15.40;97.40
17202;DHT22;8717;53.588;10.176;2023-04-24T08:45:21;15.20;96.90
17202;DHT22;8717;53.588;10.176;2023-04-24T08:47:49;15.20;96.90
17202;DHT22;8717;53.588;10.176;2023-04-24T08:50:17;15.00;96.90
17202;DHT22;8717;53.588;10.176;2023-04-24T08:52:43;14.90;97.30
17202;DHT22;8717;53.588;10.176;2023-04-24T08:55:11;14.80;97.70
17202;DHT22;8717;53.588;10.176;2023-04-24T08:57:39;14.70;97.60
17202;DHT22;8717;53.588;10.176;2023-04-24T09:00:07;14.70;97.30
17202;DHT22;8717;53.588;10.176;2023-04-24T09:02:34;14.50;97.10
17202;DHT22;8717;53.588;10.176;2023-04-24T09:05:01;14.50;96.90
17202;DHT22;8717;53.588;10.176;2023-04-24T09:07:30;14.40;97.30
17202;DHT22;8717;53.588;10.176;2023-04-24T09:09:58;14.40;98.10
17202;DHT22;8717;53.588;10.176;2023-04-24T09:12:27;14.50;98.20
17202;DHT22;8717;53.588;10.176;2023-04-24T09:14:54;14.70;98.00
17202;DHT22;8717;53.588;10.176;2023-04-24T09:17:21;14.80;98.10
17202;DHT22;8717;53.588;10.176;2023-04-24T09:19:49;15.00;97.10
17202;DHT22;8717;53.588;10.176;2023-04-24T09:22:16;15.30;97.00
17202;DHT22;8717;53.588;10.176;2023-04-24T09:24:42;15.30;95.80
17202;DHT22;8717;53.588;10.176;2023-04-24T09:27:11;15.40;95.80
17202;DHT22;8717;53.588;10.176;2023-04-24T09:29:53;15.40;96.10
17202;DHT22;8717;53.588;10.176;2023-04-24T09:32:21;15.40;95.80
17202;DHT22;8717;53.588;10.176;2023-04-24T09:35:05;15.40;95.70
17202;DHT22;8717;53.588;10.176;2023-04-24T09:37:35;15.30;95.30
17202;DHT22;8717;53.588;10.176;2023-04-24T09:40:13;15.30;96.20
17202;DHT22;8717;53.588;10.176;2023-04-24T09:42:40;15.20;95.20
17202;DHT22;8717;53.588;10.176;2023-04-24T09:45:11;15.00;95.70
17202;DHT22;8717;53.588;10.176;2023-04-24T09:47:38;14.90;96.00
17202;DHT22;8717;53.588;10.176;2023-04-24T09:50:15;14.70;95.90
17202;DHT22;8717;53.588;10.176;2023-04-24T09:52:43;14.50;95.90
17202;DHT22;8717;53.588;10.176;2023-04-24T09:55:18;14.40;96.50
17202;DHT22;8717;53.588;10.176;2023-04-24T09:57:49;14.30;96.30
17202;DHT22;8717;53.588;10.176;2023-04-24T10:00:23;14.20;96.50
17202;DHT22;8717;53.588;10.176;2023-04-24T10:02:53;14.20;96.80
17202;DHT22;8717;53.588;10.176;2023-04-24T10:05:23;14.30;97.20
17202;DHT22;8717;53.588;10.176;2023-04-24T10:07:50;14.30;97.30
17202;DHT22;8717;53.588;10.176;2023-04-24T10:10:17;14.40;96.80
17202;DHT22;8717;53.588;10.176;2023-04-24T10:12:44;14.40;96.40
17202;DHT22;8717;53.588;10.176;2023-04-24T10:15:11;14.40;96.50
17202;DHT22;8717;53.588;10.176;2023-04-24T10:17:41;14.50;96.70
17202;DHT22;8717;53.588;10.176;2023-04-24T10:20:08;14.60;96.20
17202;DHT22;8717;53.588;10.176;2023-04-24T10:22:35;14.60;95.60
17202;DHT22;8717;53.588;10.176;2023-04-24T10:25:04;14.80;96.60
17202;DHT22;8717;53.588;10.176;2023-04-24T10:27:32;15.00;96.60
17202;DHT22;8717;53.588;10.176;2023-04-24T10:30:01;15.10;95.80
17202;DHT22;8717;53.588;10.176;2023-04-24T10:32:28;15.10;95.10
17202;DHT22;8717;53.588;10.176;2023-04-24T10:34:56;15.00;95.70
17202;DHT22;8717;53.588;10.176;2023-04-24T10:37:24;15.00;95.80
17202;DHT22;8717;53.588;10.176;2023-04-24T10:39:51;14.90;95.00
17202;DHT22;8717;53.588;10.176;2023-04-24T10:42:20;14.70;95.90
17202;DHT22;8717;53.588;10.176;2023-04-24T10:44:47;14.70;96.20
17202;DHT22;8717;53.588;10.176;2023-04-24T10:47:14;14.60;96.10
17202;DHT22;8717;53.588;10.176;2023-04-24T10:49:41;14.60;96.40
17202;DHT22;8717;53.588;10.176;2023-04-24T10:52:09;14.50;96.70
17202;DHT22;8717;53.588;10.176;2023-04-24T10:54:41;14.60;96.60
17202;DHT22;8717;53.588;10.176;2023-04-24T10:57:28;14.50;96.40
17202;DHT22;8717;53.588;10.176;2023-04-24T11:00:16;14.50;96.50
17202;DHT22;8717;53.588;10.176;2023-04-24T11:02:46;14.30;95.90
17202;DHT22;8717;53.588;10.176;2023-04-24T11:05:15;14.30;96.50
17202;DHT22;8717;53.588;10.176;2023-04-24T11:08:13;14.10;96.50
17202;DHT22;8717;53.588;10.176;2023-04-24T11:10:40;14.00;96.80
17202;DHT22;8717;53.588;10.176;2023-04-24T11:13:10;14.10;97.30
17202;DHT22;8717;53.588;10.176;2023-04-24T11:15:36;14.20;96.80
17202;DHT22;8717;53.588;10.176;2023-04-24T11:18:03;14.40;96.90
17202;DHT22;8717;53.588;10.176;2023-04-24T11:20:30;14.50;96.50
17202;DHT22;8717;53.588;10.176;2023-04-24T11:23:03;14.70;96.50
17202;DHT22;8717;53.588;10.176;2023-04-24T11:25:31;14.80;95.40
17202;DHT22;8717;53.588;10.176;2023-04-24T11:28:03;14.90;96.20
17202;DHT22;8717;53.588;10.176;2023-04-24T11:30:31;15.00;96.10
17202;DHT22;8717;53.588;10.176;2023-04-24T11:33:02;15.10;96.20
17202;DHT22;8717;53.588;10.176;2023-04-24T11:35:34;15.30;95.40
17202;DHT22;8717;53.588;10.176;2023-04-24T11:38:03;15.60;94.50
17202;DHT22;8717;53.588;10.176;2023-04-24T11:40:32;15.80;93.80
17202;DHT22;8717;53.588;10.176;2023-04-24T11:43:00;15.90;93.00
17202;DHT22;8717;53.588;10.176;2023-04-24T11:45:30;16.00;93.90
17202;DHT22;8717;53.588;10.176;2023-04-24T11:47:57;16.00;93.10
17202;DHT22;8717;53.588;10.176;2023-04-24T11:50:26;16.00;93.00
17202;DHT22;8717;53.588;10.176;2023-04-24T11:52:54;16.00;93.20
17202;DHT22;8717;53.588;10.176;2023-04-24T11:55:25;15.90;92.40
17202;DHT22;8717;53.588;10.176;2023-04-24T11:57:55;15.70;92.80
17202;DHT22;8717;53.588;10.176;2023-04-24T12:00:25;15.60;93.10
17202;DHT22;8717;53.588;10.176;2023-04-24T12:03:05;15.60;93.00
17202;DHT22;8717;53.588;10.176;2023-04-24T12:05:32;15.40;92.30
17202;DHT22;8717;53.588;10.176;2023-04-24T12:08:00;15.40;92.80
17202;DHT22;8717;53.588;10.176;2023-04-24T12:10:28;15.40;92.70
17202;DHT22;8717;53.588;10.176;2023-04-24T12:12:59;15.20;91.50
17202;DHT22;8717;53.588;10.176;2023-04-24T12:15:26;15.10;92.20
17202;DHT22;8717;53.588;10.176;2023-04-24T12:17:55;15.00;92.10
17202;DHT22;8717;53.588;10.176;2023-04-24T12:20:24;15.00;92.80
17202;DHT22;8717;53.588;10.176;2023-04-24T12:22:52;15.00;92.90
17202;DHT22;8717;53.588;10.176;2023-04-24T12:25:21;15.00;92.80
17202;DHT22;8717;53.588;10.176;2023-04-24T12:27:53;15.10;92.60
17202;DHT22;8717;53.588;10.176;2023-04-24T12:30:26;15.10;92.60
17202;DHT22;8717;53.588;10.176;2023-04-24T12:32:53;15.30;92.90
17202;DHT22;8717;53.588;10.176;2023-04-24T12:35:21;15.40;92.60
17202;DHT22;8717;53.588;10.176;2023-04-24T12:37:49;15.50;92.00
17202;DHT22;8717;53.588;10.176;2023-04-24T12:40:21;15.60;91.80
17202;DHT22;8717;53.588;10.176;2023-04-24T12:42:51;15.70;91.30
17202;DHT22;8717;53.588;10.176;2023-04-24T12:45:20;15.80;91.10
17202;DHT22;8717;53.588;10.176;2023-04-24T12:47:49;15.80;91.00
17202;DHT22;8717;53.588;10.176;2023-04-24T12:50:16;15.80;91.60
17202;DHT22;8717;53.588;10.176;2023-04-24T12:52:43;15.90;91.60
17202;DHT22;8717;53.588;10.176;2023-04-24T12:55:10;15.90;91.50
17202;DHT22;8717;53.588;10.176;2023-04-24T12:57:39;15.80;91.70
17202;DHT22;8717;53.588;10.176;2023-04-24T13:00:08;15.80;91.50
17202;DHT22;8717;53.588;10.176;2023-04-24T13:02:36;15.60;91.50
17202;DHT22;8717;53.588;10.176;2023-04-24T13:05:06;15.50;91.70
17202;DHT22;8717;53.588;10.176;2023-04-24T13:07:33;15.30;91.90
17202;DHT22;8717;53.588;10.176;2023-04-24T13:10:00;15.20;92.10
17202;DHT22;8717;53.588;10.176;2023-04-24T13:12:27;15.00;92.00
17202;DHT22;8717;53.588;10.176;2023-04-24T13:14:55;14.80;92.40
17202;DHT22;8717;53.588;10.176;2023-04-24T13:17:24;14.60;92.50
17202;DHT22;8717;53.588;10.176;2023-04-24T13:19:56;14.40;92.60
17202;DHT22;8717;53.588;10.176;2023-04-24T13:22:22;14.30;92.90
17202;DHT22;8717;53.588;10.176;2023-04-24T13:24:50;14.20;93.20
17202;DHT22;8717;53.588;10.176;2023-04-24T13:27:17;14.10;93.20
17202;DHT22;8717;53.588;10.176;2023-04-24T13:29:44;14.00;93.50
17202;DHT22;8717;53.588;10.176;2023-04-24T13:32:14;13.90;93.80
17202;DHT22;8717;53.588;10.176;2023-04-24T13:34:41;13.80;94.60
17202;DHT22;8717;53.588;10.176;2023-04-24T13:37:09;13.60;95.30
17202;DHT22;8717;53.588;10.176;2023-04-24T13:39:36;13.50;96.20
17202;DHT22;8717;53.588;10.176;2023-04-24T13:42:03;13.40;96.60
17202;DHT22;8717;53.588;10.176;2023-04-24T13:44:31;13.30;97.00
17202;DHT22;8717;53.588;10.176;2023-04-24T13:46:58;13.10;97.20
17202;DHT22;8717;53.588;10.176;2023-04-24T13:49:25;13.00;97.90
17202;DHT22;8717;53.588;10.176;2023-04-24T13:51:53;12.90;97.80
17202;DHT22;8717;53.588;10.176;2023-04-24T13:54:21;12.70;98.40
17202;DHT22;8717;53.588;10.176;2023-04-24T13:56:48;12.60;98.90
17202;DHT22;8717;53.588;10.176;2023-04-24T13:59:15;12.60;99.20
17202;DHT22;8717;53.588;10.176;2023-04-24T14:01:42;12.50;99.10
17202;DHT22;8717;53.588;10.176;2023-04-24T14:04:10;12.40;99.10
17202;DHT22;8717;53.588;10.176;2023-04-24T14:06:37;12.40;98.70
17202;DHT22;8717;53.588;10.176;2023-04-24T14:09:04;12.40;98.40
17202;DHT22;8717;53.588;10.176;2023-04-24T14:11:34;12.40;98.50
17202;DHT22;8717;53.588;10.176;2023-04-24T14:14:03;12.40;99.00
17202;DHT22;8717;53.588;10.176;2023-04-24T14:16:30;12.40;99.10
17202;DHT22;8717;53.588;10.176;2023-04-24T14:18:57;12.30;99.10
17202;DHT22;8717;53.588;10.176;2023-04-24T14:21:24;12.30;99.50
17202;DHT22;8717;53.588;10.176;2023-04-24T14:23:51;12.30;99.50
17202;DHT22;8717;53.588;10.176;2023-04-24T14:26:17;12.20;99.70
17202;DHT22;8717;53.588;10.176;2023-04-24T14:28:45;12.10;99.90
17202;DHT22;8717;53.588;10.176;2023-04-24T14:31:12;12.00;99.90
17202;DHT22;8717;53.588;10.176;2023-04-24T14:33:42;12.00;99.90
17202;DHT22;8717;53.588;10.176;2023-04-24T14:36:08;11.90;99.90
17202;DHT22;8717;53.588;10.176;2023-04-24T14:38:35;11.90;99.90
17202;DHT22;8717;53.588;10.176;2023-04-24T14:41:02;11.90;99.90
17202;DHT22;8717;53.588;10.176;2023-04-24T14:43:34;11.90;99.90
17202;DHT22;8717;53.588;10.176;2023-04-24T14:46:02;12.00;99.90
17202;DHT22;8717;53.588;10.176;2023-04-24T14:48:30;12.00;99.90
17202;DHT22;8717;53.588;10.176;2023-04-24T14:50:56;12.10;99.90
17202;DHT22;8717;53.588;10.176;2023-04-24T14:53:23;12.20;99.60
17202;DHT22;8717;53.588;10.176;2023-04-24T14:55:50;12.20;99.50
17202;DHT22;8717;53.588;10.176;2023-04-24T14:58:18;12.30;99.40
17202;DHT22;8717;53.588;10.176;2023-04-24T15:00:45;12.40;99.10
17202;DHT22;8717;53.588;10.176;2023-04-24T15:03:16;12.40;98.90
17202;DHT22;8717;53.588;10.176;2023-04-24T15:05:42;12.40;99.00
17202;DHT22;8717;53.588;10.176;2023-04-24T15:08:09;12.40;99.50
17202;DHT22;8717;53.588;10.176;2023-04-24T15:10:36;12.30;99.90
17202;DHT22;8717;53.588;10.176;2023-04-24T15:13:05;12.30;99.90
17202;DHT22;8717;53.588;10.176;2023-04-24T15:15:32;12.10;99.90
17202;DHT22;8717;53.588;10.176;2023-04-24T15:17:59;12.00;99.90
17202;DHT22;8717;53.588;10.176;2023-04-24T15:20:27;11.90;99.90
17202;DHT22;8717;53.588;10.176;2023-04-24T15:22:53;11.70;99.90
17202;DHT22;8717;53.588;10.176;2023-04-24T15:25:20;11.60;99.90
17202;DHT22;8717;53.588;10.176;2023-04-24T15:27:47;11.50;99.90
17202;DHT22;8717;53.588;10.176;2023-04-24T15:30:14;11.30;99.90
17202;DHT22;8717;53.588;10.176;2023-04-24T15:32:50;11.20;99.90
17202;DHT22;8717;53.588;10.176;2023-04-24T15:35:17;11.10;99.90
17202;DHT22;8717;53.588;10.176;2023-04-24T15:37:45;11.00;99.90
17202;DHT22;8717;53.588;10.176;2023-04-24T15:40:13;10.90;99.90
17202;DHT22;8717;53.588;10.176;2023-04-24T15:42:47;10.80;99.90